createdAt,value
2023-03-04T00:00:58.857Z,53.19
2023-03-04T00:01:58.885Z,55.56
2023-03-04T00:02:58.907Z,54.86
2023-03-04T00:03:58.840Z,53.73
2023-03-04T00:04:58.839Z,50.40
2023-03-04T00:05:58.839Z,50.08
2023-03-04T00:06:58.819Z,55.47
2023-03-04T00:07:58.827Z,55.89
2023-03-04T00:08:58.821Z,53.23
2023-03-04T00:09:58.790Z,52.05
2023-03-04T00:10:58.803Z,56.48
2023-03-04T00:11:58.794Z,51.02
2023-03-04T00:12:58.766Z,52.34
2023-03-04T00:13:58.764Z,53.68
2023-03-04T00:14:58.770Z,48.61
2023-03-04T00:15:58.765Z,52.14
2023-03-04T00:16:58.761Z,54.10
2023-03-04T00:17:58.754Z,53.57
2023-03-04T00:18:58.733Z,54.30
2023-03-04T00:19:58.742Z,53.21
2023-03-04T00:20:58.759Z,52.99
2023-03-04T00:21:58.724Z,51.47
2023-03-04T00:22:58.728Z,55.07
2023-03-04T00:23:58.706Z,52.34
2023-03-04T00:24:58.700Z,52.51
2023-03-04T00:25:58.690Z,54.65
2023-03-04T00:26:58.682Z,53.42
2023-03-04T00:27:58.715Z,54.81
2023-03-04T00:28:58.672Z,48.79
2023-03-04T00:29:58.659Z,54.60
2023-03-04T00:30:58.660Z,55.58
2023-03-04T00:31:58.764Z,53.99
2023-03-04T00:32:58.648Z,51.13
2023-03-04T00:33:58.645Z,50.02
2023-03-04T00:34:58.721Z,52.08
2023-03-04T00:35:58.660Z,53.13
2023-03-04T00:36:58.613Z,51.65
2023-03-04T00:37:58.640Z,52.04
2023-03-04T00:38:58.603Z,52.51
2023-03-04T00:39:58.596Z,51.45
2023-03-04T00:40:58.588Z,53.76
2023-03-04T00:41:58.561Z,53.65
2023-03-04T00:42:58.584Z,52.67
2023-03-04T00:43:58.568Z,51.81
2023-03-04T00:44:58.566Z,51.61
2023-03-04T00:45:58.639Z,54.87
2023-03-04T00:46:58.552Z,54.21
2023-03-04T00:47:58.559Z,50.89
2023-03-04T00:48:58.572Z,55.07
2023-03-04T00:49:58.516Z,55.10
2023-03-04T00:50:58.524Z,51.68
2023-03-04T00:51:58.512Z,53.37
2023-03-04T00:52:58.511Z,51.40
2023-03-04T00:54:00.713Z,52.36
2023-03-04T00:54:58.496Z,52.70
2023-03-04T00:55:58.492Z,50.94
2023-03-04T00:56:58.476Z,54.05
2023-03-04T00:57:58.490Z,52.58
2023-03-04T00:58:58.463Z,52.39
2023-03-04T00:59:58.473Z,52.82
2023-03-04T01:00:58.478Z,47.60
2023-03-04T01:01:58.448Z,51.62
2023-03-04T01:02:58.432Z,54.33
2023-03-04T01:03:58.438Z,51.18
2023-03-04T01:04:59.445Z,53.78
2023-03-04T01:05:58.428Z,55.30
2023-03-04T01:06:58.411Z,55.21
2023-03-04T01:07:58.402Z,53.86
2023-03-04T01:08:58.408Z,52.16
2023-03-04T01:09:58.411Z,55.89
2023-03-04T01:10:58.384Z,52.38
2023-03-04T01:11:58.373Z,53.09
2023-03-04T01:12:58.367Z,55.48
2023-03-04T01:13:58.369Z,54.03
2023-03-04T01:14:58.361Z,54.72
2023-03-04T01:15:58.341Z,54.13
2023-03-04T01:16:58.389Z,48.65
2023-03-04T01:17:58.395Z,46.75
2023-03-04T01:18:58.336Z,50.73
2023-03-04T01:19:58.328Z,48.51
2023-03-04T01:20:58.313Z,49.90
2023-03-04T01:21:58.310Z,49.82
2023-03-04T01:22:58.302Z,52.98
2023-03-04T01:23:58.315Z,51.46
2023-03-04T01:24:58.290Z,53.66
2023-03-04T01:25:58.277Z,54.69
2023-03-04T01:26:58.272Z,50.42
2023-03-04T01:27:58.261Z,53.42
2023-03-04T01:28:58.259Z,51.68
2023-03-04T01:29:58.289Z,50.29
2023-03-04T01:30:58.283Z,52.05
2023-03-04T01:31:58.253Z,50.28
2023-03-04T01:32:58.229Z,49.36
2023-03-04T01:33:58.224Z,47.61
2023-03-04T01:34:58.238Z,49.71
2023-03-04T01:35:58.245Z,55.24
2023-03-04T01:36:58.203Z,54.04
2023-03-04T01:37:58.196Z,47.93
2023-03-04T01:38:58.189Z,49.79
2023-03-04T01:39:58.179Z,50.39
2023-03-04T01:40:58.228Z,52.78
2023-03-04T01:41:58.168Z,54.55
2023-03-04T01:42:58.173Z,52.15
2023-03-04T01:43:58.171Z,47.36
2023-03-04T01:44:58.151Z,51.57
2023-03-04T01:45:58.180Z,46.82
2023-03-04T01:46:58.139Z,47.29
2023-03-04T01:47:58.142Z,48.66
2023-03-04T01:48:58.153Z,51.71
2023-03-04T01:49:58.164Z,52.04
2023-03-04T01:50:58.111Z,50.82
2023-03-04T01:51:58.104Z,54.62
2023-03-04T01:52:58.108Z,50.27
2023-03-04T01:53:58.087Z,50.88
2023-03-04T01:54:58.083Z,51.55
2023-03-04T01:55:58.070Z,51.47
2023-03-04T01:56:58.071Z,53.01
2023-03-04T01:57:58.078Z,52.85
2023-03-04T01:58:58.060Z,54.17
2023-03-04T01:59:58.067Z,52.10
2023-03-04T02:00:58.046Z,48.18
2023-03-04T02:01:58.035Z,55.44
2023-03-04T02:02:58.052Z,51.31
2023-03-04T02:03:58.061Z,49.72
2023-03-04T02:04:58.028Z,48.86
2023-03-04T02:05:58.003Z,49.75
2023-03-04T02:06:58.000Z,48.98
2023-03-04T02:07:58.003Z,51.74
2023-03-04T02:08:58.013Z,51.86
2023-03-04T02:09:57.983Z,52.70
2023-03-04T02:10:58.002Z,50.42
2023-03-04T02:11:57.993Z,50.71
2023-03-04T02:12:57.977Z,47.92
2023-03-04T02:13:57.937Z,46.77
2023-03-04T02:14:57.974Z,51.65
2023-03-04T02:15:58.001Z,48.14
2023-03-04T02:16:57.944Z,48.19
2023-03-04T02:17:57.936Z,48.43
2023-03-04T02:18:57.916Z,49.60
2023-03-04T02:19:57.925Z,49.67
2023-03-04T02:20:57.901Z,47.34
2023-03-04T02:21:57.892Z,51.32
2023-03-04T02:22:57.895Z,51.25
2023-03-04T02:23:57.891Z,54.34
2023-03-04T02:24:57.901Z,51.41
2023-03-04T02:25:57.870Z,54.88
2023-03-04T02:26:57.865Z,52.81
2023-03-04T02:27:57.861Z,50.08
2023-03-04T02:28:57.852Z,47.76
2023-03-04T02:29:57.855Z,54.84
2023-03-04T02:30:57.870Z,51.57
2023-03-04T02:31:57.877Z,48.85
2023-03-04T02:32:57.814Z,49.12
2023-03-04T02:33:58.819Z,48.60
2023-03-04T02:34:57.826Z,52.92
2023-03-04T02:35:57.849Z,50.19
2023-03-04T02:36:57.797Z,49.53
2023-03-04T02:37:57.793Z,52.35
2023-03-04T02:38:58.785Z,49.74
2023-03-04T02:39:57.796Z,47.43
2023-03-04T02:40:57.786Z,49.72
2023-03-04T02:41:57.786Z,48.72
2023-03-04T02:42:57.754Z,54.03
2023-03-04T02:43:57.755Z,51.15
2023-03-04T02:44:57.770Z,50.84
2023-03-04T02:45:57.741Z,52.43
2023-03-04T02:46:57.738Z,51.41
2023-03-04T02:47:57.755Z,49.35
2023-03-04T02:48:57.942Z,50.07
2023-03-04T02:49:57.727Z,53.26
2023-03-04T02:50:57.717Z,47.67
2023-03-04T02:51:57.706Z,49.82
2023-03-04T02:52:57.677Z,49.92
2023-03-04T02:53:57.679Z,49.76
2023-03-04T02:54:57.675Z,53.83
2023-03-04T02:55:57.691Z,51.01
2023-03-04T02:56:57.660Z,48.40
2023-03-04T02:57:57.655Z,50.74
2023-03-04T02:58:57.656Z,49.49
2023-03-04T02:59:57.644Z,47.62
2023-03-04T03:00:57.644Z,47.69
2023-03-04T03:01:57.664Z,53.22
2023-03-04T03:02:57.648Z,49.26
2023-03-04T03:03:57.615Z,50.78
2023-03-04T03:04:57.616Z,51.82
2023-03-04T03:05:57.615Z,53.36
2023-03-04T03:06:57.603Z,47.56
2023-03-04T03:07:57.614Z,50.03
2023-03-04T03:08:57.589Z,50.38
2023-03-04T03:09:57.584Z,50.53
2023-03-04T03:10:57.573Z,50.80
2023-03-04T03:11:57.574Z,48.03
2023-03-04T03:12:57.567Z,51.32
2023-03-04T03:13:57.550Z,50.53
2023-03-04T03:14:57.567Z,50.85
2023-03-04T03:15:57.598Z,51.13
2023-03-04T03:16:57.532Z,50.41
2023-03-04T03:17:57.532Z,50.00
2023-03-04T03:18:57.507Z,48.54
2023-03-04T03:19:57.519Z,52.61
2023-03-04T03:20:57.497Z,48.03
2023-03-04T03:21:57.486Z,50.77
2023-03-04T03:22:57.483Z,47.00
2023-03-04T03:23:57.504Z,47.34
2023-03-04T03:24:57.486Z,47.54
2023-03-04T03:25:57.471Z,47.99
2023-03-04T03:26:57.464Z,48.95
2023-03-04T03:27:57.452Z,48.62
2023-03-04T03:28:57.448Z,49.76
2023-03-04T03:29:57.441Z,50.88
2023-03-04T03:30:57.428Z,51.92
2023-03-04T03:31:57.571Z,48.20
2023-03-04T03:32:57.432Z,51.10
2023-03-04T03:33:57.439Z,51.11
2023-03-04T03:34:57.400Z,50.10
2023-03-04T03:35:57.552Z,48.47
2023-03-04T03:36:57.395Z,47.14
2023-03-04T03:37:57.386Z,47.18
2023-03-04T03:38:57.386Z,47.67
2023-03-04T03:39:57.411Z,48.16
2023-03-04T03:40:57.363Z,50.65
2023-03-04T03:41:57.358Z,47.27
2023-03-04T03:42:57.350Z,49.29
2023-03-04T03:43:57.361Z,49.48
2023-03-04T03:44:57.368Z,51.64
2023-03-04T03:45:57.411Z,52.16
2023-03-04T03:46:57.334Z,52.96
2023-03-04T03:47:57.323Z,53.29
2023-03-04T03:48:57.310Z,51.32
2023-03-04T03:49:57.326Z,51.94
2023-03-04T03:50:57.322Z,52.38
2023-03-04T03:51:57.293Z,51.60
2023-03-04T03:52:57.282Z,49.00
2023-03-04T03:53:57.266Z,48.52
2023-03-04T03:54:57.277Z,47.26
2023-03-04T03:55:57.290Z,47.66
2023-03-04T03:56:57.256Z,49.93
2023-03-04T03:57:57.257Z,48.79
2023-03-04T03:58:57.245Z,48.95
2023-03-04T03:59:57.241Z,51.43
2023-03-04T04:00:58.448Z,49.96
2023-03-04T04:01:58.294Z,46.64
2023-03-04T04:02:57.231Z,48.42
2023-03-04T04:03:57.228Z,47.77
2023-03-04T04:04:57.208Z,48.11
2023-03-04T04:05:57.199Z,50.47
2023-03-04T04:06:57.198Z,53.06
2023-03-04T04:07:57.212Z,50.47
2023-03-04T04:08:57.173Z,54.17
2023-03-04T04:09:57.171Z,50.73
2023-03-04T04:10:57.156Z,50.26
2023-03-04T04:11:57.184Z,49.58
2023-03-04T04:12:57.219Z,51.66
2023-03-04T04:13:57.183Z,48.55
2023-03-04T04:14:57.132Z,52.94
2023-03-04T04:15:57.145Z,50.49
2023-03-04T04:16:57.143Z,51.03
2023-03-04T04:17:57.116Z,51.07
2023-03-04T04:18:57.112Z,52.65
2023-03-04T04:19:57.090Z,50.36
2023-03-04T04:20:57.116Z,50.21
2023-03-04T04:21:57.093Z,51.93
2023-03-04T04:22:57.093Z,51.76
2023-03-04T04:23:57.079Z,50.65
2023-03-04T04:24:57.148Z,50.35
2023-03-04T04:25:57.116Z,49.75
2023-03-04T04:26:57.041Z,49.58
2023-03-04T04:27:57.053Z,50.60
2023-03-04T04:28:57.027Z,49.57
2023-03-04T04:29:57.030Z,49.28
2023-03-04T04:30:57.089Z,50.06
2023-03-04T04:31:57.051Z,48.93
2023-03-04T04:32:57.008Z,49.78
2023-03-04T04:33:56.991Z,51.18
2023-03-04T04:34:56.991Z,49.47
2023-03-04T04:35:57.053Z,51.21
2023-03-04T04:36:56.995Z,52.60
2023-03-04T04:37:56.979Z,51.95
2023-03-04T04:38:56.970Z,53.48
2023-03-04T04:39:56.959Z,51.84
2023-03-04T04:40:56.957Z,50.33
2023-03-04T04:41:56.966Z,50.81
2023-03-04T04:42:56.938Z,52.63
2023-03-04T04:43:56.944Z,51.29
2023-03-04T04:44:56.923Z,50.06
2023-03-04T04:45:56.930Z,50.19
2023-03-04T04:46:56.926Z,51.21
2023-03-04T04:47:56.919Z,48.03
2023-03-04T04:48:56.890Z,50.97
2023-03-04T04:49:56.899Z,51.17
2023-03-04T04:50:56.879Z,51.29
2023-03-04T04:51:56.878Z,49.61
2023-03-04T04:52:56.870Z,50.66
2023-03-04T04:53:56.873Z,50.76
2023-03-04T04:54:56.879Z,50.23
2023-03-04T04:55:56.857Z,48.81
2023-03-04T04:56:56.860Z,50.87
2023-03-04T04:57:56.838Z,51.52
2023-03-04T04:58:56.833Z,53.14
2023-03-04T04:59:56.820Z,49.97
2023-03-04T05:00:56.844Z,51.56
2023-03-04T05:01:56.832Z,52.24
2023-03-04T05:02:56.832Z,48.74
2023-03-04T05:03:56.803Z,49.84
2023-03-04T05:04:56.797Z,51.12
2023-03-04T05:05:56.794Z,48.69
2023-03-04T05:06:56.800Z,52.32
2023-03-04T05:07:56.801Z,52.33
2023-03-04T05:08:56.837Z,52.93
2023-03-04T05:09:56.768Z,53.82
2023-03-04T05:10:56.768Z,53.48
2023-03-04T05:11:56.752Z,51.18
2023-03-04T05:12:56.772Z,54.38
2023-03-04T05:13:56.749Z,53.32
2023-03-04T05:14:56.743Z,54.54
2023-03-04T05:15:56.803Z,53.32
2023-03-04T05:16:56.730Z,53.32
2023-03-04T05:17:56.725Z,54.52
2023-03-04T05:18:56.717Z,53.80
2023-03-04T05:19:56.728Z,54.33
2023-03-04T05:20:56.696Z,56.36
2023-03-04T05:21:56.697Z,52.01
2023-03-04T05:22:56.694Z,51.11
2023-03-04T05:23:56.674Z,54.96
2023-03-04T05:24:56.696Z,54.11
2023-03-04T05:25:56.672Z,52.31
2023-03-04T05:26:56.662Z,53.36
2023-03-04T05:27:56.650Z,53.08
2023-03-04T05:28:56.661Z,53.63
2023-03-04T05:29:56.636Z,53.54
2023-03-04T05:30:56.641Z,53.85
2023-03-04T05:31:56.674Z,53.42
2023-03-04T05:32:56.614Z,54.38
2023-03-04T05:33:56.607Z,57.25
2023-03-04T05:34:56.620Z,53.70
2023-03-04T05:35:56.645Z,54.39
2023-03-04T05:36:56.616Z,52.90
2023-03-04T05:37:57.560Z,55.21
2023-03-04T05:38:56.574Z,55.17
2023-03-04T05:39:56.603Z,55.68
2023-03-04T05:40:56.581Z,54.62
2023-03-04T05:41:56.563Z,52.06
2023-03-04T05:42:56.568Z,54.56
2023-03-04T05:43:56.578Z,53.89
2023-03-04T05:44:56.553Z,55.92
2023-03-04T05:45:56.534Z,55.60
2023-03-04T05:46:56.521Z,55.53
2023-03-04T05:47:56.546Z,53.52
2023-03-04T05:48:56.514Z,52.98
2023-03-04T05:49:56.526Z,52.10
2023-03-04T05:50:56.498Z,53.26
2023-03-04T05:51:56.485Z,52.74
2023-03-04T05:52:56.487Z,51.75
2023-03-04T05:53:56.494Z,53.40
2023-03-04T05:54:56.480Z,50.47
2023-03-04T05:55:56.458Z,51.43
2023-03-04T05:56:56.459Z,51.47
2023-03-04T05:57:56.459Z,51.06
2023-03-04T05:58:56.452Z,51.12
2023-03-04T05:59:56.456Z,52.20
2023-03-04T06:00:56.416Z,53.27
2023-03-04T06:01:57.423Z,54.02
2023-03-04T06:02:56.489Z,50.80
2023-03-04T06:03:56.477Z,53.43
2023-03-04T06:04:56.395Z,56.28
2023-03-04T06:05:56.398Z,57.08
2023-03-04T06:06:56.388Z,51.47
2023-03-04T06:07:56.371Z,53.53
2023-03-04T06:08:56.377Z,51.69
2023-03-04T06:09:56.374Z,52.15
2023-03-04T06:10:56.357Z,54.75
2023-03-04T06:11:56.353Z,52.15
2023-03-04T06:12:56.344Z,49.94
2023-03-04T06:13:56.374Z,54.59
2023-03-04T06:14:56.334Z,51.49
2023-03-04T06:15:56.371Z,52.01
2023-03-04T06:16:56.307Z,53.20
2023-03-04T06:17:56.305Z,52.05
2023-03-04T06:18:56.302Z,53.21
2023-03-04T06:19:56.298Z,50.58
2023-03-04T06:20:56.288Z,51.76
2023-03-04T06:21:56.290Z,59.91
2023-03-04T06:22:56.299Z,54.29
2023-03-04T06:23:56.286Z,52.07
2023-03-04T06:24:56.261Z,52.55
2023-03-04T06:25:56.265Z,54.67
2023-03-04T06:26:56.248Z,54.06
2023-03-04T06:27:56.259Z,51.38
2023-03-04T06:28:56.246Z,55.72
2023-03-04T06:29:56.225Z,54.56
2023-03-04T06:30:57.245Z,53.56
2023-03-04T06:31:56.288Z,54.65
2023-03-04T06:32:56.214Z,54.86
2023-03-04T06:33:56.216Z,55.72
2023-03-04T06:34:56.262Z,53.08
2023-03-04T06:35:56.304Z,54.98
2023-03-04T06:36:56.194Z,52.81
2023-03-04T06:37:56.191Z,53.48
2023-03-04T06:38:56.170Z,55.75
2023-03-04T06:39:56.193Z,54.54
2023-03-04T06:40:57.548Z,54.92
2023-03-04T06:41:57.154Z,54.40
2023-03-04T06:42:56.144Z,52.15
2023-03-04T06:43:56.138Z,56.43
2023-03-04T06:44:56.150Z,54.60
2023-03-04T06:45:56.149Z,56.83
2023-03-04T06:46:56.139Z,57.87
2023-03-04T06:47:56.114Z,56.12
2023-03-04T06:48:56.115Z,55.42
2023-03-04T06:49:56.106Z,54.87
2023-03-04T06:50:56.115Z,54.45
2023-03-04T06:51:56.098Z,53.06
2023-03-04T06:52:56.083Z,52.51
2023-03-04T06:53:56.066Z,52.16
2023-03-04T06:54:57.074Z,56.46
2023-03-04T06:55:56.081Z,53.27
2023-03-04T06:56:56.056Z,55.79
2023-03-04T06:57:56.065Z,54.53
2023-03-04T06:58:56.058Z,53.84
2023-03-04T06:59:56.046Z,54.09
2023-03-04T07:00:56.062Z,55.26
2023-03-04T07:01:56.039Z,55.42
2023-03-04T07:02:56.013Z,56.04
2023-03-04T07:03:56.012Z,54.62
2023-03-04T07:04:56.053Z,53.17
2023-03-04T07:05:56.012Z,53.65
2023-03-04T07:06:55.990Z,54.02
2023-03-04T07:07:55.977Z,56.31
2023-03-04T07:08:55.987Z,56.14
2023-03-04T07:09:56.008Z,53.82
2023-03-04T07:10:55.956Z,54.64
2023-03-04T07:11:55.955Z,55.92
2023-03-04T07:12:55.942Z,53.28
2023-03-04T07:13:55.950Z,54.35
2023-03-04T07:14:55.938Z,55.95
2023-03-04T07:15:55.938Z,55.04
2023-03-04T07:16:55.927Z,55.83
2023-03-04T07:17:55.918Z,54.77
2023-03-04T07:18:55.907Z,55.59
2023-03-04T07:19:55.900Z,55.21
2023-03-04T07:20:55.898Z,56.30
2023-03-04T07:21:55.900Z,54.34
2023-03-04T07:22:55.877Z,54.83
2023-03-04T07:23:55.870Z,54.71
2023-03-04T07:24:55.875Z,54.97
2023-03-04T07:25:57.567Z,56.13
2023-03-04T07:26:55.875Z,53.38
2023-03-04T07:27:55.898Z,57.08
2023-03-04T07:28:55.868Z,54.15
2023-03-04T07:29:55.834Z,56.59
2023-03-04T07:30:55.855Z,55.27
2023-03-04T07:31:55.925Z,55.17
2023-03-04T07:32:55.866Z,56.39
2023-03-04T07:33:55.806Z,55.44
2023-03-04T07:34:55.811Z,53.53
2023-03-04T07:35:55.802Z,55.43
2023-03-04T07:36:56.750Z,55.66
2023-03-04T07:37:55.780Z,55.62
2023-03-04T07:38:55.790Z,55.16
2023-03-04T07:39:55.784Z,55.15
2023-03-04T07:40:55.754Z,54.51
2023-03-04T07:41:55.771Z,56.89
2023-03-04T07:42:55.758Z,56.90
2023-03-04T07:43:55.739Z,57.03
2023-03-04T07:44:55.773Z,58.54
2023-03-04T07:45:55.786Z,56.13
2023-03-04T07:46:55.722Z,54.25
2023-03-04T07:47:55.716Z,54.58
2023-03-04T07:48:55.725Z,55.51
2023-03-04T07:49:55.697Z,54.07
2023-03-04T07:50:55.711Z,54.10
2023-03-04T07:51:55.692Z,55.22
2023-03-04T07:52:55.688Z,56.08
2023-03-04T07:53:55.676Z,54.92
2023-03-04T07:54:55.713Z,54.15
2023-03-04T07:55:55.671Z,56.79
2023-03-04T07:56:55.649Z,56.94
2023-03-04T07:57:55.640Z,53.97
2023-03-04T07:58:55.640Z,56.57
2023-03-04T07:59:55.640Z,56.60
2023-03-04T08:00:55.649Z,55.46
2023-03-04T08:01:55.639Z,55.44
2023-03-04T08:02:55.631Z,56.39
2023-03-04T08:03:55.685Z,55.83
2023-03-04T08:04:55.603Z,55.73
2023-03-04T08:05:55.592Z,57.45
2023-03-04T08:06:55.600Z,56.91
2023-03-04T08:07:55.581Z,56.25
2023-03-04T08:08:55.571Z,58.65
2023-03-04T08:09:55.572Z,57.11
2023-03-04T08:10:55.572Z,55.03
2023-03-04T08:11:55.570Z,55.41
2023-03-04T08:12:55.552Z,57.54
2023-03-04T08:13:55.557Z,56.19
2023-03-04T08:14:55.567Z,56.19
2023-03-04T08:15:55.547Z,57.18
2023-03-04T08:16:55.522Z,56.59
2023-03-04T08:17:55.513Z,55.69
2023-03-04T08:18:55.528Z,55.46
2023-03-04T08:19:55.512Z,55.61
2023-03-04T08:20:55.570Z,55.15
2023-03-04T08:21:55.502Z,56.29
2023-03-04T08:22:55.538Z,56.01
2023-03-04T08:23:55.525Z,54.73
2023-03-04T08:24:55.475Z,56.17
2023-03-04T08:25:55.492Z,57.43
2023-03-04T08:26:55.470Z,55.96
2023-03-04T08:27:55.465Z,55.53
2023-03-04T08:28:55.454Z,56.43
2023-03-04T08:29:55.449Z,55.65
2023-03-04T08:30:55.473Z,57.14
2023-03-04T08:31:55.619Z,56.96
2023-03-04T08:32:55.490Z,58.17
2023-03-04T08:33:55.430Z,57.92
2023-03-04T08:34:55.425Z,56.28
2023-03-04T08:35:55.427Z,55.92
2023-03-04T08:36:55.420Z,55.63
2023-03-04T08:37:55.397Z,55.38
2023-03-04T08:38:55.395Z,57.32
2023-03-04T08:39:55.394Z,56.51
2023-03-04T08:40:55.369Z,55.95
2023-03-04T08:41:55.398Z,56.93
2023-03-04T08:42:55.360Z,56.91
2023-03-04T08:43:55.353Z,56.77
2023-03-04T08:44:55.390Z,58.00
2023-03-04T08:45:55.352Z,56.25
2023-03-04T08:46:55.345Z,59.63
2023-03-04T08:47:55.326Z,56.47
2023-03-04T08:48:55.341Z,57.16
2023-03-04T08:49:55.309Z,56.93
2023-03-04T08:50:55.314Z,58.29
2023-03-04T08:51:55.314Z,56.18
2023-03-04T08:52:55.294Z,57.96
2023-03-04T08:53:55.357Z,56.00
2023-03-04T08:54:55.298Z,55.76
2023-03-04T08:55:55.265Z,55.71
2023-03-04T08:56:55.257Z,57.89
2023-03-04T08:57:55.255Z,56.45
2023-03-04T08:58:55.249Z,57.17
2023-03-04T08:59:55.257Z,58.89
2023-03-04T09:00:55.232Z,56.15
2023-03-04T09:01:55.288Z,57.62
2023-03-04T09:02:55.239Z,58.37
2023-03-04T09:03:55.270Z,58.75
2023-03-04T09:04:55.216Z,53.77
2023-03-04T09:05:55.206Z,56.71
2023-03-04T09:06:55.185Z,57.92
2023-03-04T09:07:55.184Z,58.31
2023-03-04T09:08:55.165Z,59.22
2023-03-04T09:09:55.165Z,57.60
2023-03-04T09:10:55.171Z,56.76
2023-03-04T09:11:55.185Z,59.16
2023-03-04T09:12:55.153Z,58.89
2023-03-04T09:13:55.150Z,56.37
2023-03-04T09:15:09.788Z,58.66
2023-03-04T09:15:57.216Z,57.12
2023-03-04T09:16:55.121Z,57.74
2023-03-04T09:17:55.127Z,57.56
2023-03-04T09:18:55.102Z,57.52
2023-03-04T09:19:56.752Z,55.80
2023-03-04T09:20:55.099Z,57.18
2023-03-04T09:21:55.193Z,55.76
2023-03-04T09:22:55.083Z,56.76
2023-03-04T09:23:55.063Z,55.59
2023-03-04T09:24:55.064Z,58.37
2023-03-04T09:25:55.055Z,59.29
2023-03-04T09:26:55.080Z,57.89
2023-03-04T09:27:55.052Z,58.18
2023-03-04T09:28:55.041Z,57.51
2023-03-04T09:29:55.029Z,57.96
2023-03-04T09:30:55.021Z,56.63
2023-03-04T09:31:55.006Z,56.92
2023-03-04T09:32:55.014Z,56.76
2023-03-04T09:33:55.003Z,56.38
2023-03-04T09:34:54.995Z,57.37
2023-03-04T09:35:55.072Z,56.20
2023-03-04T09:36:54.998Z,58.20
2023-03-04T09:37:54.984Z,58.20
2023-03-04T09:38:54.971Z,59.70
2023-03-04T09:39:54.982Z,58.85
2023-03-04T09:40:54.951Z,58.05
2023-03-04T09:41:54.963Z,58.93
2023-03-04T09:42:54.938Z,57.46
2023-03-04T09:43:55.153Z,57.42
2023-03-04T09:44:54.934Z,57.87
2023-03-04T09:45:54.961Z,58.52
2023-03-04T09:46:54.937Z,58.58
2023-03-04T09:47:54.903Z,58.78
2023-03-04T09:48:54.896Z,57.12
2023-03-04T09:49:54.888Z,57.21
2023-03-04T09:50:54.977Z,58.37
2023-03-04T09:51:54.863Z,58.94
2023-03-04T09:52:54.892Z,57.84
2023-03-04T09:53:54.851Z,55.37
2023-03-04T09:54:54.855Z,55.97
2023-03-04T09:55:54.855Z,58.14
2023-03-04T09:56:54.894Z,58.65
2023-03-04T09:57:54.829Z,59.01
2023-03-04T09:58:54.834Z,58.18
2023-03-04T09:59:54.807Z,57.63
2023-03-04T10:00:54.898Z,58.88
2023-03-04T10:01:54.785Z,58.10
2023-03-04T10:02:54.814Z,56.34
2023-03-04T10:03:54.818Z,56.06
2023-03-04T10:04:54.923Z,56.90
2023-03-04T10:05:54.790Z,56.46
2023-03-04T10:06:54.849Z,57.96
2023-03-04T10:07:54.769Z,57.18
2023-03-04T10:08:54.772Z,56.38
2023-03-04T10:09:54.731Z,56.98
2023-03-04T10:10:55.189Z,57.53
2023-03-04T10:11:54.726Z,55.96
2023-03-04T10:12:54.712Z,57.77
2023-03-04T10:13:54.726Z,57.17
2023-03-04T10:14:54.724Z,57.83
2023-03-04T10:15:54.735Z,56.45
2023-03-04T10:16:54.692Z,56.08
2023-03-04T10:17:54.716Z,57.60
2023-03-04T10:18:54.673Z,57.48
2023-03-04T10:19:54.668Z,57.02
2023-03-04T10:20:54.670Z,57.61
2023-03-04T10:21:54.640Z,58.22
2023-03-04T10:22:54.671Z,59.98
2023-03-04T10:23:54.638Z,57.55
2023-03-04T10:24:54.655Z,57.17
2023-03-04T10:25:54.628Z,56.89
2023-03-04T10:26:54.616Z,57.11
2023-03-04T10:27:54.614Z,56.88
2023-03-04T10:28:54.620Z,57.74
2023-03-04T10:29:54.597Z,58.48
2023-03-04T10:30:54.588Z,59.33
2023-03-04T10:31:54.600Z,57.18
2023-03-04T10:32:54.584Z,58.36
2023-03-04T10:33:54.572Z,57.25
2023-03-04T10:34:54.550Z,58.37
2023-03-04T10:35:54.828Z,57.98
2023-03-04T10:36:54.542Z,56.99
2023-03-04T10:37:54.536Z,56.09
2023-03-04T10:38:54.529Z,55.79
2023-03-04T10:39:54.528Z,55.90
2023-03-04T10:40:54.534Z,57.35
2023-03-04T10:41:54.590Z,56.65
2023-03-04T10:42:54.494Z,58.22
2023-03-04T10:43:54.497Z,57.15
2023-03-04T10:44:54.481Z,56.85
2023-03-04T10:45:54.556Z,57.88
2023-03-04T10:46:54.495Z,59.19
2023-03-04T10:47:54.494Z,58.22
2023-03-04T10:48:54.444Z,58.75
2023-03-04T10:49:54.446Z,56.72
2023-03-04T10:50:54.464Z,56.34
2023-03-04T10:51:57.176Z,58.14
2023-03-04T10:52:54.401Z,57.98
2023-03-04T10:53:54.420Z,57.70
2023-03-04T10:54:54.415Z,57.32
2023-03-04T10:55:54.420Z,58.02
2023-03-04T10:56:54.388Z,57.46
2023-03-04T10:57:56.278Z,58.80
2023-03-04T10:58:54.380Z,58.72
2023-03-04T10:59:54.368Z,59.25
2023-03-04T11:00:54.459Z,57.83
2023-03-04T11:01:54.352Z,58.78
2023-03-04T11:02:54.352Z,56.95
2023-03-04T11:03:54.380Z,57.41
2023-03-04T11:04:54.334Z,57.91
2023-03-04T11:05:54.342Z,58.46
2023-03-04T11:06:54.335Z,57.60
2023-03-04T11:07:56.693Z,57.43
2023-03-04T11:08:55.307Z,57.04
2023-03-04T11:09:56.617Z,57.07
2023-03-04T11:10:54.291Z,57.46
2023-03-04T11:11:54.293Z,58.42
2023-03-04T11:12:54.283Z,56.90
2023-03-04T11:13:54.263Z,57.99
2023-03-04T11:14:54.260Z,59.04
2023-03-04T11:15:56.188Z,57.34
2023-03-04T11:16:54.374Z,56.58
2023-03-04T11:17:54.255Z,58.14
2023-03-04T11:18:54.243Z,57.79
2023-03-04T11:19:54.234Z,59.05
2023-03-04T11:20:54.219Z,59.56
2023-03-04T11:21:54.233Z,59.89
2023-03-04T11:22:54.223Z,58.66
2023-03-04T11:23:54.205Z,58.29
2023-03-04T11:24:54.199Z,58.73
2023-03-04T11:25:54.195Z,60.12
2023-03-04T11:26:54.167Z,59.30
2023-03-04T11:27:54.212Z,58.33
2023-03-04T11:28:54.159Z,59.49
2023-03-04T11:29:54.147Z,58.06
2023-03-04T11:30:54.143Z,59.73
2023-03-04T11:31:54.258Z,58.14
2023-03-04T11:32:54.135Z,56.46
2023-03-04T11:33:54.120Z,58.92
2023-03-04T11:34:54.120Z,60.00
2023-03-04T11:35:54.162Z,57.12
2023-03-04T11:36:54.104Z,58.49
2023-03-04T11:37:54.114Z,58.69
2023-03-04T11:38:54.104Z,57.72
2023-03-04T11:39:54.096Z,57.57
2023-03-04T11:40:54.097Z,58.75
2023-03-04T11:41:54.087Z,56.68
2023-03-04T11:42:54.113Z,58.57
2023-03-04T11:43:54.075Z,59.24
2023-03-04T11:44:54.080Z,58.46
2023-03-04T11:45:54.079Z,57.98
2023-03-04T11:46:54.067Z,56.51
2023-03-04T11:47:54.081Z,56.38
2023-03-04T11:48:54.059Z,56.12
2023-03-04T11:49:54.041Z,57.04
2023-03-04T11:50:54.066Z,58.45
2023-03-04T11:51:54.028Z,57.13
2023-03-04T11:52:54.017Z,57.60
2023-03-04T11:53:54.028Z,56.73
2023-03-04T11:54:54.016Z,58.04
2023-03-04T11:55:54.027Z,57.45
2023-03-04T11:56:53.999Z,57.82
2023-03-04T11:57:53.988Z,57.17
2023-03-04T11:58:53.997Z,57.13
2023-03-04T11:59:53.969Z,57.53
2023-03-04T12:00:53.973Z,57.68
2023-03-04T12:01:53.963Z,57.47
2023-03-04T12:02:53.954Z,57.40
2023-03-04T12:03:54.044Z,57.72
2023-03-04T12:04:54.006Z,56.51
2023-03-04T12:05:53.932Z,56.85
2023-03-04T12:06:53.929Z,57.49
2023-03-04T12:07:53.921Z,56.69
2023-03-04T12:08:53.915Z,58.06
2023-03-04T12:09:53.895Z,58.01
2023-03-04T12:10:53.899Z,57.07
2023-03-04T12:11:53.888Z,58.25
2023-03-04T12:12:53.885Z,58.03
2023-03-04T12:13:53.890Z,57.04
2023-03-04T12:14:53.973Z,56.28
2023-03-04T12:15:53.878Z,57.80
2023-03-04T12:16:53.857Z,58.14
2023-03-04T12:17:53.851Z,57.69
2023-03-04T12:18:53.859Z,57.69
2023-03-04T12:19:53.856Z,57.89
2023-03-04T12:20:53.819Z,58.74
2023-03-04T12:21:53.815Z,57.10
2023-03-04T12:22:53.819Z,57.60
2023-03-04T12:23:53.814Z,57.48
2023-03-04T12:24:53.958Z,56.51
2023-03-04T12:25:53.842Z,58.39
2023-03-04T12:26:53.797Z,58.73
2023-03-04T12:27:53.787Z,58.13
2023-03-04T12:28:53.767Z,57.83
2023-03-04T12:29:53.847Z,58.72
2023-03-04T12:30:53.877Z,57.51
2023-03-04T12:31:53.769Z,58.44
2023-03-04T12:32:53.747Z,57.26
2023-03-04T12:33:53.738Z,59.52
2023-03-04T12:34:53.749Z,57.62
2023-03-04T12:35:53.934Z,58.66
2023-03-04T12:36:53.868Z,58.24
2023-03-04T12:37:53.718Z,57.89
2023-03-04T12:38:53.705Z,58.52
2023-03-04T12:39:53.694Z,58.99
2023-03-04T12:40:53.776Z,58.42
2023-03-04T12:41:54.682Z,57.79
2023-03-04T12:42:53.672Z,57.70
2023-03-04T12:43:53.666Z,56.78
2023-03-04T12:44:53.659Z,57.93
2023-03-04T12:45:53.663Z,58.76
2023-03-04T12:46:53.666Z,59.29
2023-03-04T12:47:53.642Z,59.01
2023-03-04T12:48:53.633Z,58.99
2023-03-04T12:49:53.658Z,59.05
2023-03-04T12:50:53.625Z,56.78
2023-03-04T12:51:53.638Z,58.39
2023-03-04T12:52:53.623Z,60.17